sensor_id;sensor_type;location;lat;lon;timestamp;temperature;humidity
20158;DHT22;10239;56.820;24.416;2022-08-19T00:01:49;23.00;99.90
20158;DHT22;10239;56.820;24.416;2022-08-19T00:04:22;22.90;99.90
20158;DHT22;10239;56.820;24.416;2022-08-19T00:06:51;22.90;99.90
20158;DHT22;10239;56.820;24.416;2022-08-19T00:09:20;23.00;99.90
20158;DHT22;10239;56.820;24.416;2022-08-19T00:11:49;22.90;99.90
20158;DHT22;10239;56.820;24.416;2022-08-19T00:14:17;22.90;99.90
20158;DHT22;10239;56.820;24.416;2022-08-19T00:16:46;22.90;99.90
20158;DHT22;10239;56.820;24.416;2022-08-19T00:19:16;22.90;99.90
20158;DHT22;10239;56.820;24.416;2022-08-19T00:21:44;22.90;99.90
20158;DHT22;10239;56.820;24.416;2022-08-19T00:24:13;22.80;99.90
20158;DHT22;10239;56.820;24.416;2022-08-19T00:26:43;22.80;99.90
20158;DHT22;10239;56.820;24.416;2022-08-19T00:29:13;22.80;99.90
20158;DHT22;10239;56.820;24.416;2022-08-19T00:31:41;22.70;99.90
20158;DHT22;10239;56.820;24.416;2022-08-19T00:34:11;22.80;99.90
20158;DHT22;10239;56.820;24.416;2022-08-19T00:36:40;22.70;99.90
20158;DHT22;10239;56.820;24.416;2022-08-19T00:39:08;22.70;99.90
20158;DHT22;10239;56.820;24.416;2022-08-19T00:41:37;22.60;99.90
20158;DHT22;10239;56.820;24.416;2022-08-19T00:46:37;22.60;99.90
20158;DHT22;10239;56.820;24.416;2022-08-19T00:49:29;22.50;99.90
20158;DHT22;10239;56.820;24.416;2022-08-19T00:52:29;22.50;99.90
20158;DHT22;10239;56.820;24.416;2022-08-19T00:55:00;22.50;99.90
20158;DHT22;10239;56.820;24.416;2022-08-19T00:57:38;22.60;99.90
20158;DHT22;10239;56.820;24.416;2022-08-19T01:00:10;22.60;99.90
20158;DHT22;10239;56.820;24.416;2022-08-19T01:02:41;22.70;99.90
20158;DHT22;10239;56.820;24.416;2022-08-19T01:05:16;22.70;99.90
20158;DHT22;10239;56.820;24.416;2022-08-19T01:07:46;22.70;99.90
20158;DHT22;10239;56.820;24.416;2022-08-19T01:10:18;22.70;99.90
20158;DHT22;10239;56.820;24.416;2022-08-19T01:12:47;22.70;99.90
20158;DHT22;10239;56.820;24.416;2022-08-19T01:15:19;22.60;99.90
20158;DHT22;10239;56.820;24.416;2022-08-19T01:17:47;22.60;99.90
20158;DHT22;10239;56.820;24.416;2022-08-19T01:20:21;22.70;99.90
20158;DHT22;10239;56.820;24.416;2022-08-19T01:22:53;22.70;99.90
20158;DHT22;10239;56.820;24.416;2022-08-19T01:25:26;22.70;99.90
20158;DHT22;10239;56.820;24.416;2022-08-19T01:27:55;22.70;99.90
20158;DHT22;10239;56.820;24.416;2022-08-19T01:30:34;22.70;99.90
20158;DHT22;10239;56.820;24.416;2022-08-19T01:33:03;22.70;99.90
20158;DHT22;10239;56.820;24.416;2022-08-19T01:35:32;22.70;99.90
20158;DHT22;10239;56.820;24.416;2022-08-19T01:38:06;22.60;99.90
20158;DHT22;10239;56.820;24.416;2022-08-19T01:40:38;22.60;99.90
20158;DHT22;10239;56.820;24.416;2022-08-19T01:43:06;22.60;99.90
20158;DHT22;10239;56.820;24.416;2022-08-19T01:45:34;22.60;99.90
20158;DHT22;10239;56.820;24.416;2022-08-19T01:48:03;22.60;99.90
20158;DHT22;10239;56.820;24.416;2022-08-19T01:50:32;22.50;99.90
20158;DHT22;10239;56.820;24.416;2022-08-19T01:53:03;22.50;99.90
20158;DHT22;10239;56.820;24.416;2022-08-19T01:55:35;22.50;99.90
20158;DHT22;10239;56.820;24.416;2022-08-19T01:58:18;22.40;99.90
20158;DHT22;10239;56.820;24.416;2022-08-19T02:00:48;22.40;99.90
20158;DHT22;10239;56.820;24.416;2022-08-19T02:03:16;22.30;99.90
20158;DHT22;10239;56.820;24.416;2022-08-19T02:05:44;22.30;99.90
20158;DHT22;10239;56.820;24.416;2022-08-19T02:08:13;22.30;99.90
20158;DHT22;10239;56.820;24.416;2022-08-19T02:10:42;22.20;99.90
20158;DHT22;10239;56.820;24.416;2022-08-19T02:13:12;22.10;99.90
20158;DHT22;10239;56.820;24.416;2022-08-19T02:15:40;22.00;99.90
20158;DHT22;10239;56.820;24.416;2022-08-19T02:18:08;21.90;99.90
20158;DHT22;10239;56.820;24.416;2022-08-19T02:20:37;22.00;99.90
20158;DHT22;10239;56.820;24.416;2022-08-19T02:23:06;21.90;99.90
20158;DHT22;10239;56.820;24.416;2022-08-19T02:25:43;21.90;99.90
20158;DHT22;10239;56.820;24.416;2022-08-19T02:28:12;21.90;99.90
20158;DHT22;10239;56.820;24.416;2022-08-19T02:30:46;22.00;99.90
20158;DHT22;10239;56.820;24.416;2022-08-19T02:33:14;21.90;99.90
20158;DHT22;10239;56.820;24.416;2022-08-19T02:35:45;22.00;99.90
20158;DHT22;10239;56.820;24.416;2022-08-19T02:38:14;22.00;99.90
20158;DHT22;10239;56.820;24.416;2022-08-19T02:41:01;22.00;99.90
20158;DHT22;10239;56.820;24.416;2022-08-19T02:43:31;21.90;99.90
20158;DHT22;10239;56.820;24.416;2022-08-19T02:46:01;21.80;99.90
20158;DHT22;10239;56.820;24.416;2022-08-19T02:48:29;21.80;99.90
20158;DHT22;10239;56.820;24.416;2022-08-19T02:51:00;21.80;99.90
20158;DHT22;10239;56.820;24.416;2022-08-19T02:53:28;21.80;99.90
20158;DHT22;10239;56.820;24.416;2022-08-19T02:55:55;21.70;99.90
20158;DHT22;10239;56.820;24.416;2022-08-19T02:58:23;21.70;99.90
20158;DHT22;10239;56.820;24.416;2022-08-19T03:00:54;21.80;99.90
20158;DHT22;10239;56.820;24.416;2022-08-19T03:03:22;21.80;99.90
20158;DHT22;10239;56.820;24.416;2022-08-19T03:05:50;21.70;99.90
20158;DHT22;10239;56.820;24.416;2022-08-19T03:08:23;21.80;99.90
20158;DHT22;10239;56.820;24.416;2022-08-19T03:10:51;21.90;99.90
20158;DHT22;10239;56.820;24.416;2022-08-19T03:13:20;21.80;99.90
20158;DHT22;10239;56.820;24.416;2022-08-19T03:15:48;21.80;99.90
20158;DHT22;10239;56.820;24.416;2022-08-19T03:18:16;21.90;99.90
20158;DHT22;10239;56.820;24.416;2022-08-19T03:20:46;21.80;99.90
20158;DHT22;10239;56.820;24.416;2022-08-19T03:23:18;21.80;99.90
20158;DHT22;10239;56.820;24.416;2022-08-19T03:25:47;21.60;99.90
20158;DHT22;10239;56.820;24.416;2022-08-19T03:28:31;21.70;99.90
20158;DHT22;10239;56.820;24.416;2022-08-19T03:31:13;21.80;99.90
20158;DHT22;10239;56.820;24.416;2022-08-19T03:34:02;21.80;99.90
20158;DHT22;10239;56.820;24.416;2022-08-19T03:36:34;21.90;99.90
20158;DHT22;10239;56.820;24.416;2022-08-19T03:39:02;21.90;99.90
20158;DHT22;10239;56.820;24.416;2022-08-19T03:41:39;21.90;99.90
20158;DHT22;10239;56.820;24.416;2022-08-19T03:44:18;21.80;99.90
20158;DHT22;10239;56.820;24.416;2022-08-19T03:46:53;21.80;99.90
20158;DHT22;10239;56.820;24.416;2022-08-19T03:49:24;21.90;99.90
20158;DHT22;10239;56.820;24.416;2022-08-19T03:51:56;22.00;99.90
20158;DHT22;10239;56.820;24.416;2022-08-19T03:54:25;21.90;99.90
20158;DHT22;10239;56.820;24.416;2022-08-19T03:56:55;22.00;99.90
20158;DHT22;10239;56.820;24.416;2022-08-19T03:59:28;22.10;99.90
20158;DHT22;10239;56.820;24.416;2022-08-19T04:01:59;22.30;99.90
20158;DHT22;10239;56.820;24.416;2022-08-19T04:04:26;22.40;99.90
20158;DHT22;10239;56.820;24.416;2022-08-19T04:06:56;22.30;99.90
20158;DHT22;10239;56.820;24.416;2022-08-19T04:09:24;22.40;99.90
20158;DHT22;10239;56.820;24.416;2022-08-19T04:11:54;22.60;99.90
20158;DHT22;10239;56.820;24.416;2022-08-19T04:14:28;22.50;99.90
20158;DHT22;10239;56.820;24.416;2022-08-19T04:17:10;22.40;99.90
20158;DHT22;10239;56.820;24.416;2022-08-19T04:19:40;22.40;99.90
20158;DHT22;10239;56.820;24.416;2022-08-19T04:22:10;22.50;99.90
20158;DHT22;10239;56.820;24.416;2022-08-19T04:24:38;22.60;99.90
20158;DHT22;10239;56.820;24.416;2022-08-19T04:27:10;22.80;99.90
20158;DHT22;10239;56.820;24.416;2022-08-19T04:29:37;22.90;99.90
20158;DHT22;10239;56.820;24.416;2022-08-19T04:32:06;22.80;99.90
20158;DHT22;10239;56.820;24.416;2022-08-19T04:34:36;22.90;99.90
20158;DHT22;10239;56.820;24.416;2022-08-19T04:37:26;22.90;99.90
20158;DHT22;10239;56.820;24.416;2022-08-19T04:40:05;23.10;99.90
20158;DHT22;10239;56.820;24.416;2022-08-19T04:42:51;23.30;99.90
20158;DHT22;10239;56.820;24.416;2022-08-19T04:45:21;23.30;99.90
20158;DHT22;10239;56.820;24.416;2022-08-19T04:47:49;23.40;99.90
20158;DHT22;10239;56.820;24.416;2022-08-19T04:50:40;23.40;99.90
20158;DHT22;10239;56.820;24.416;2022-08-19T04:53:09;23.60;99.90
20158;DHT22;10239;56.820;24.416;2022-08-19T04:55:41;23.70;99.90
20158;DHT22;10239;56.820;24.416;2022-08-19T04:58:09;23.80;99.90
20158;DHT22;10239;56.820;24.416;2022-08-19T05:00:38;24.00;99.90
20158;DHT22;10239;56.820;24.416;2022-08-19T05:03:07;25.70;99.90
20158;DHT22;10239;56.820;24.416;2022-08-19T05:05:39;27.00;99.90
20158;DHT22;10239;56.820;24.416;2022-08-19T05:08:13;27.50;99.90
20158;DHT22;10239;56.820;24.416;2022-08-19T05:10:41;28.60;99.90
20158;DHT22;10239;56.820;24.416;2022-08-19T05:13:09;29.50;99.90
20158;DHT22;10239;56.820;24.416;2022-08-19T05:15:38;29.90;99.90
20158;DHT22;10239;56.820;24.416;2022-08-19T05:18:06;30.80;99.90
20158;DHT22;10239;56.820;24.416;2022-08-19T05:20:52;30.30;99.90
20158;DHT22;10239;56.820;24.416;2022-08-19T05:23:40;31.10;99.90
20158;DHT22;10239;56.820;24.416;2022-08-19T05:26:08;31.20;99.90
20158;DHT22;10239;56.820;24.416;2022-08-19T05:28:38;30.70;99.90
20158;DHT22;10239;56.820;24.416;2022-08-19T05:31:06;31.10;99.90
20158;DHT22;10239;56.820;24.416;2022-08-19T05:33:34;31.70;99.90
20158;DHT22;10239;56.820;24.416;2022-08-19T05:36:02;31.90;99.90
20158;DHT22;10239;56.820;24.416;2022-08-19T05:38:30;32.90;99.90
20158;DHT22;10239;56.820;24.416;2022-08-19T05:40:58;33.10;99.90
20158;DHT22;10239;56.820;24.416;2022-08-19T05:43:26;33.40;99.90
20158;DHT22;10239;56.820;24.416;2022-08-19T05:45:54;33.70;99.90
20158;DHT22;10239;56.820;24.416;2022-08-19T05:48:22;33.80;99.90
20158;DHT22;10239;56.820;24.416;2022-08-19T05:50:50;33.80;99.90
20158;DHT22;10239;56.820;24.416;2022-08-19T05:53:18;34.50;99.90
20158;DHT22;10239;56.820;24.416;2022-08-19T05:55:46;34.40;99.90
20158;DHT22;10239;56.820;24.416;2022-08-19T05:58:13;34.10;99.90
20158;DHT22;10239;56.820;24.416;2022-08-19T06:00:43;35.20;99.90
20158;DHT22;10239;56.820;24.416;2022-08-19T06:03:11;35.10;99.90
20158;DHT22;10239;56.820;24.416;2022-08-19T06:05:40;34.20;99.90
20158;DHT22;10239;56.820;24.416;2022-08-19T06:08:16;35.00;99.90
20158;DHT22;10239;56.820;24.416;2022-08-19T06:10:45;34.70;99.90
20158;DHT22;10239;56.820;24.416;2022-08-19T06:13:13;35.30;99.90
20158;DHT22;10239;56.820;24.416;2022-08-19T06:15:41;34.90;99.90
20158;DHT22;10239;56.820;24.416;2022-08-19T06:18:12;34.70;99.90
20158;DHT22;10239;56.820;24.416;2022-08-19T06:20:41;35.20;99.90
20158;DHT22;10239;56.820;24.416;2022-08-19T06:23:23;35.20;99.90
20158;DHT22;10239;56.820;24.416;2022-08-19T06:25:51;35.30;99.90
20158;DHT22;10239;56.820;24.416;2022-08-19T06:28:19;34.30;99.90
20158;DHT22;10239;56.820;24.416;2022-08-19T06:30:47;33.60;99.90
20158;DHT22;10239;56.820;24.416;2022-08-19T06:33:15;33.40;99.90
20158;DHT22;10239;56.820;24.416;2022-08-19T06:35:44;32.20;99.90
20158;DHT22;10239;56.820;24.416;2022-08-19T06:38:12;32.40;99.90
20158;DHT22;10239;56.820;24.416;2022-08-19T06:40:40;33.80;99.90
20158;DHT22;10239;56.820;24.416;2022-08-19T06:43:07;35.20;99.90
20158;DHT22;10239;56.820;24.416;2022-08-19T06:45:37;36.10;99.90
20158;DHT22;10239;56.820;24.416;2022-08-19T06:48:05;35.40;99.90
20158;DHT22;10239;56.820;24.416;2022-08-19T06:50:35;35.40;99.90
20158;DHT22;10239;56.820;24.416;2022-08-19T06:53:06;34.70;99.90
20158;DHT22;10239;56.820;24.416;2022-08-19T06:55:34;33.80;99.90
20158;DHT22;10239;56.820;24.416;2022-08-19T06:58:03;33.00;99.90
20158;DHT22;10239;56.820;24.416;2022-08-19T07:00:31;32.00;99.90
20158;DHT22;10239;56.820;24.416;2022-08-19T07:02:59;31.60;99.90
20158;DHT22;10239;56.820;24.416;2022-08-19T07:05:40;31.30;99.90
20158;DHT22;10239;56.820;24.416;2022-08-19T07:08:12;31.70;99.90
20158;DHT22;10239;56.820;24.416;2022-08-19T07:10:46;31.60;99.90
20158;DHT22;10239;56.820;24.416;2022-08-19T07:13:16;31.00;99.90
20158;DHT22;10239;56.820;24.416;2022-08-19T07:15:44;30.20;99.90
20158;DHT22;10239;56.820;24.416;2022-08-19T07:18:19;30.10;99.90
20158;DHT22;10239;56.820;24.416;2022-08-19T07:20:47;29.90;99.90
20158;DHT22;10239;56.820;24.416;2022-08-19T07:23:15;29.80;99.90
20158;DHT22;10239;56.820;24.416;2022-08-19T07:25:43;30.00;99.90
20158;DHT22;10239;56.820;24.416;2022-08-19T07:28:19;30.50;99.90
20158;DHT22;10239;56.820;24.416;2022-08-19T07:30:52;30.30;99.90
20158;DHT22;10239;56.820;24.416;2022-08-19T07:33:21;30.30;99.90
20158;DHT22;10239;56.820;24.416;2022-08-19T07:35:49;30.40;99.90
20158;DHT22;10239;56.820;24.416;2022-08-19T07:38:17;30.20;99.90
20158;DHT22;10239;56.820;24.416;2022-08-19T07:40:45;30.50;99.90
20158;DHT22;10239;56.820;24.416;2022-08-19T07:43:14;30.40;99.90
20158;DHT22;10239;56.820;24.416;2022-08-19T07:45:48;30.90;99.90
20158;DHT22;10239;56.820;24.416;2022-08-19T07:48:16;32.50;99.90
20158;DHT22;10239;56.820;24.416;2022-08-19T07:50:43;33.80;99.90
20158;DHT22;10239;56.820;24.416;2022-08-19T07:53:14;35.40;99.90
20158;DHT22;10239;56.820;24.416;2022-08-19T07:55:47;36.50;99.90
20158;DHT22;10239;56.820;24.416;2022-08-19T07:58:21;37.30;99.90
20158;DHT22;10239;56.820;24.416;2022-08-19T08:00:50;36.70;99.90
20158;DHT22;10239;56.820;24.416;2022-08-19T08:03:19;36.70;99.90
20158;DHT22;10239;56.820;24.416;2022-08-19T08:05:52;36.60;99.90
20158;DHT22;10239;56.820;24.416;2022-08-19T08:08:42;36.00;99.90
20158;DHT22;10239;56.820;24.416;2022-08-19T08:11:40;36.90;99.90
20158;DHT22;10239;56.820;24.416;2022-08-19T08:14:22;35.90;99.90
20158;DHT22;10239;56.820;24.416;2022-08-19T08:20:23;35.50;99.90
20158;DHT22;10239;56.820;24.416;2022-08-19T08:23:03;36.30;99.90
20158;DHT22;10239;56.820;24.416;2022-08-19T08:25:52;36.60;99.90
20158;DHT22;10239;56.820;24.416;2022-08-19T08:28:23;36.80;99.90
20158;DHT22;10239;56.820;24.416;2022-08-19T08:31:20;36.80;99.90
20158;DHT22;10239;56.820;24.416;2022-08-19T08:33:55;37.60;99.10
20158;DHT22;10239;56.820;24.416;2022-08-19T08:36:23;38.00;98.30
20158;DHT22;10239;56.820;24.416;2022-08-19T08:38:55;37.60;97.60
20158;DHT22;10239;56.820;24.416;2022-08-19T08:44:42;36.70;97.50
20158;DHT22;10239;56.820;24.416;2022-08-19T08:47:22;36.90;97.10
20158;DHT22;10239;56.820;24.416;2022-08-19T08:49:59;37.60;97.10
20158;DHT22;10239;56.820;24.416;2022-08-19T08:52:37;37.70;96.00
20158;DHT22;10239;56.820;24.416;2022-08-19T08:55:17;36.60;96.30
20158;DHT22;10239;56.820;24.416;2022-08-19T08:58:09;35.30;96.30
20158;DHT22;10239;56.820;24.416;2022-08-19T09:00:45;36.00;97.70
20158;DHT22;10239;56.820;24.416;2022-08-19T09:03:22;36.20;97.50
20158;DHT22;10239;56.820;24.416;2022-08-19T09:06:03;36.30;97.60
20158;DHT22;10239;56.820;24.416;2022-08-19T09:09:14;36.50;96.70
20158;DHT22;10239;56.820;24.416;2022-08-19T09:17:26;35.50;96.80
20158;DHT22;10239;56.820;24.416;2022-08-19T09:22:42;36.60;95.20
20158;DHT22;10239;56.820;24.416;2022-08-19T09:25:40;36.70;96.80
20158;DHT22;10239;56.820;24.416;2022-08-19T09:28:50;37.00;96.30
20158;DHT22;10239;56.820;24.416;2022-08-19T09:31:31;36.60;95.00
20158;DHT22;10239;56.820;24.416;2022-08-19T09:34:21;36.30;95.50
20158;DHT22;10239;56.820;24.416;2022-08-19T09:36:52;35.90;95.30
20158;DHT22;10239;56.820;24.416;2022-08-19T09:39:24;36.00;94.50
20158;DHT22;10239;56.820;24.416;2022-08-19T09:42:03;35.50;95.40
20158;DHT22;10239;56.820;24.416;2022-08-19T09:44:47;34.70;95.00
20158;DHT22;10239;56.820;24.416;2022-08-19T09:47:17;35.60;94.30
20158;DHT22;10239;56.820;24.416;2022-08-19T09:49:51;35.40;95.30
20158;DHT22;10239;56.820;24.416;2022-08-19T09:52:25;35.30;96.60
20158;DHT22;10239;56.820;24.416;2022-08-19T09:54:59;34.90;95.80
20158;DHT22;10239;56.820;24.416;2022-08-19T09:57:39;35.90;95.20
20158;DHT22;10239;56.820;24.416;2022-08-19T10:00:12;35.20;93.80
20158;DHT22;10239;56.820;24.416;2022-08-19T10:02:42;34.50;93.70
20158;DHT22;10239;56.820;24.416;2022-08-19T10:05:12;34.10;94.80
20158;DHT22;10239;56.820;24.416;2022-08-19T10:08:03;34.60;95.30
20158;DHT22;10239;56.820;24.416;2022-08-19T10:10:41;34.60;94.80
20158;DHT22;10239;56.820;24.416;2022-08-19T10:13:17;34.60;95.30
20158;DHT22;10239;56.820;24.416;2022-08-19T10:16:07;34.20;94.70
20158;DHT22;10239;56.820;24.416;2022-08-19T10:18:36;34.60;94.80
20158;DHT22;10239;56.820;24.416;2022-08-19T10:21:13;34.90;94.80
20158;DHT22;10239;56.820;24.416;2022-08-19T10:23:44;34.30;94.40
20158;DHT22;10239;56.820;24.416;2022-08-19T10:26:18;34.50;94.90
20158;DHT22;10239;56.820;24.416;2022-08-19T10:28:46;34.30;93.20
20158;DHT22;10239;56.820;24.416;2022-08-19T10:31:17;34.30;93.80
20158;DHT22;10239;56.820;24.416;2022-08-19T10:33:49;34.40;93.80
20158;DHT22;10239;56.820;24.416;2022-08-19T10:36:22;34.70;92.80
20158;DHT22;10239;56.820;24.416;2022-08-19T10:38:51;35.00;93.40
20158;DHT22;10239;56.820;24.416;2022-08-19T10:41:25;34.30;91.50
20158;DHT22;10239;56.820;24.416;2022-08-19T10:43:56;34.90;92.40
20158;DHT22;10239;56.820;24.416;2022-08-19T10:46:33;33.70;93.30
20158;DHT22;10239;56.820;24.416;2022-08-19T10:49:04;33.60;94.00
20158;DHT22;10239;56.820;24.416;2022-08-19T10:51:32;33.80;93.10
20158;DHT22;10239;56.820;24.416;2022-08-19T10:54:20;34.40;93.80
20158;DHT22;10239;56.820;24.416;2022-08-19T10:56:58;35.00;92.20
20158;DHT22;10239;56.820;24.416;2022-08-19T10:59:28;34.80;92.70
20158;DHT22;10239;56.820;24.416;2022-08-19T11:02:05;34.40;92.30
20158;DHT22;10239;56.820;24.416;2022-08-19T11:04:33;34.10;93.00
20158;DHT22;10239;56.820;24.416;2022-08-19T11:07:03;33.90;93.20
20158;DHT22;10239;56.820;24.416;2022-08-19T11:09:36;33.40;92.50
20158;DHT22;10239;56.820;24.416;2022-08-19T11:12:06;33.70;92.60
20158;DHT22;10239;56.820;24.416;2022-08-19T11:14:34;33.00;93.00
20158;DHT22;10239;56.820;24.416;2022-08-19T11:17:04;32.90;94.00
20158;DHT22;10239;56.820;24.416;2022-08-19T11:19:32;32.80;92.70
20158;DHT22;10239;56.820;24.416;2022-08-19T11:22:00;32.90;92.70
20158;DHT22;10239;56.820;24.416;2022-08-19T11:24:31;32.80;93.40
20158;DHT22;10239;56.820;24.416;2022-08-19T11:27:05;32.90;94.50
20158;DHT22;10239;56.820;24.416;2022-08-19T11:29:35;33.20;93.40
20158;DHT22;10239;56.820;24.416;2022-08-19T11:32:09;33.40;93.50
20158;DHT22;10239;56.820;24.416;2022-08-19T11:34:38;33.10;94.20
20158;DHT22;10239;56.820;24.416;2022-08-19T11:37:09;33.10;93.50
20158;DHT22;10239;56.820;24.416;2022-08-19T11:39:37;33.30;92.30
20158;DHT22;10239;56.820;24.416;2022-08-19T11:42:06;33.00;91.60
20158;DHT22;10239;56.820;24.416;2022-08-19T11:44:53;32.60;93.10
20158;DHT22;10239;56.820;24.416;2022-08-19T11:47:21;32.70;94.50
20158;DHT22;10239;56.820;24.416;2022-08-19T11:49:49;33.00;93.70
20158;DHT22;10239;56.820;24.416;2022-08-19T11:52:17;33.00;93.40
20158;DHT22;10239;56.820;24.416;2022-08-19T11:54:44;33.00;95.20
20158;DHT22;10239;56.820;24.416;2022-08-19T11:57:12;33.20;94.70
20158;DHT22;10239;56.820;24.416;2022-08-19T11:59:42;33.30;94.40
20158;DHT22;10239;56.820;24.416;2022-08-19T12:02:10;33.70;93.00
20158;DHT22;10239;56.820;24.416;2022-08-19T12:04:38;33.10;94.60
20158;DHT22;10239;56.820;24.416;2022-08-19T12:07:05;32.70;94.20
20158;DHT22;10239;56.820;24.416;2022-08-19T12:09:33;32.70;93.80
20158;DHT22;10239;56.820;24.416;2022-08-19T12:12:01;32.70;93.50
20158;DHT22;10239;56.820;24.416;2022-08-19T12:14:29;33.00;93.70
20158;DHT22;10239;56.820;24.416;2022-08-19T12:16:59;32.80;92.40
20158;DHT22;10239;56.820;24.416;2022-08-19T12:19:27;32.90;92.00
20158;DHT22;10239;56.820;24.416;2022-08-19T12:21:59;32.60;92.40
20158;DHT22;10239;56.820;24.416;2022-08-19T12:24:31;32.20;93.80
20158;DHT22;10239;56.820;24.416;2022-08-19T12:26:59;32.00;93.10
20158;DHT22;10239;56.820;24.416;2022-08-19T12:29:29;32.20;93.10
20158;DHT22;10239;56.820;24.416;2022-08-19T12:31:58;32.70;93.80
20158;DHT22;10239;56.820;24.416;2022-08-19T12:34:31;32.70;93.70
20158;DHT22;10239;56.820;24.416;2022-08-19T12:37:01;32.20;94.20
20158;DHT22;10239;56.820;24.416;2022-08-19T12:39:34;32.30;93.80
20158;DHT22;10239;56.820;24.416;2022-08-19T12:42:02;32.30;93.70
20158;DHT22;10239;56.820;24.416;2022-08-19T12:44:30;32.60;93.90
20158;DHT22;10239;56.820;24.416;2022-08-19T12:47:00;32.70;93.90
20158;DHT22;10239;56.820;24.416;2022-08-19T12:49:31;32.30;93.30
20158;DHT22;10239;56.820;24.416;2022-08-19T12:52:25;32.40;93.20
20158;DHT22;10239;56.820;24.416;2022-08-19T12:54:55;32.40;93.60
20158;DHT22;10239;56.820;24.416;2022-08-19T12:57:25;32.50;92.50
20158;DHT22;10239;56.820;24.416;2022-08-19T13:00:21;32.40;92.10
20158;DHT22;10239;56.820;24.416;2022-08-19T13:02:51;32.50;92.40
20158;DHT22;10239;56.820;24.416;2022-08-19T13:05:23;32.40;92.60
20158;DHT22;10239;56.820;24.416;2022-08-19T13:07:53;32.10;93.70
20158;DHT22;10239;56.820;24.416;2022-08-19T13:10:27;32.20;93.70
20158;DHT22;10239;56.820;24.416;2022-08-19T13:12:57;32.20;93.40
20158;DHT22;10239;56.820;24.416;2022-08-19T13:15:26;32.20;93.20
20158;DHT22;10239;56.820;24.416;2022-08-19T13:17:56;31.80;93.40
20158;DHT22;10239;56.820;24.416;2022-08-19T13:20:25;31.90;91.70
20158;DHT22;10239;56.820;24.416;2022-08-19T13:22:54;31.80;92.40
20158;DHT22;10239;56.820;24.416;2022-08-19T13:25:22;31.80;93.10
20158;DHT22;10239;56.820;24.416;2022-08-19T13:27:50;31.90;93.90
20158;DHT22;10239;56.820;24.416;2022-08-19T13:30:19;31.70;93.60
20158;DHT22;10239;56.820;24.416;2022-08-19T13:33:07;31.60;93.40
20158;DHT22;10239;56.820;24.416;2022-08-19T13:35:49;31.30;94.40
20158;DHT22;10239;56.820;24.416;2022-08-19T13:38:19;31.30;94.40
20158;DHT22;10239;56.820;24.416;2022-08-19T13:40:48;31.60;95.30
20158;DHT22;10239;56.820;24.416;2022-08-19T13:43:18;31.70;95.80
20158;DHT22;10239;56.820;24.416;2022-08-19T13:45:54;31.60;95.00
20158;DHT22;10239;56.820;24.416;2022-08-19T13:48:25;31.60;95.10
20158;DHT22;10239;56.820;24.416;2022-08-19T13:50:57;31.80;94.40
20158;DHT22;10239;56.820;24.416;2022-08-19T13:53:26;32.10;94.60
20158;DHT22;10239;56.820;24.416;2022-08-19T13:55:53;31.80;95.30
20158;DHT22;10239;56.820;24.416;2022-08-19T13:58:21;31.60;93.80
20158;DHT22;10239;56.820;24.416;2022-08-19T14:00:49;31.60;94.10
20158;DHT22;10239;56.820;24.416;2022-08-19T14:03:17;31.50;95.10
20158;DHT22;10239;56.820;24.416;2022-08-19T14:05:45;31.40;94.40
20158;DHT22;10239;56.820;24.416;2022-08-19T14:08:14;31.20;94.80
20158;DHT22;10239;56.820;24.416;2022-08-19T14:10:42;31.50;94.90
20158;DHT22;10239;56.820;24.416;2022-08-19T14:13:15;31.40;95.20
20158;DHT22;10239;56.820;24.416;2022-08-19T14:15:43;30.80;95.30
20158;DHT22;10239;56.820;24.416;2022-08-19T14:18:11;31.00;94.50
20158;DHT22;10239;56.820;24.416;2022-08-19T14:20:39;31.20;95.20
20158;DHT22;10239;56.820;24.416;2022-08-19T14:23:07;31.20;94.70
20158;DHT22;10239;56.820;24.416;2022-08-19T14:25:34;31.20;94.00
20158;DHT22;10239;56.820;24.416;2022-08-19T14:28:02;31.40;94.90
20158;DHT22;10239;56.820;24.416;2022-08-19T14:30:32;31.20;94.60
20158;DHT22;10239;56.820;24.416;2022-08-19T14:33:01;30.90;95.20
20158;DHT22;10239;56.820;24.416;2022-08-19T14:35:30;31.10;94.90
20158;DHT22;10239;56.820;24.416;2022-08-19T14:38:03;31.20;94.80
20158;DHT22;10239;56.820;24.416;2022-08-19T14:40:32;31.20;94.90
20158;DHT22;10239;56.820;24.416;2022-08-19T14:43:02;31.10;95.10
20158;DHT22;10239;56.820;24.416;2022-08-19T14:45:35;31.30;95.30
20158;DHT22;10239;56.820;24.416;2022-08-19T14:48:07;31.00;94.90
20158;DHT22;10239;56.820;24.416;2022-08-19T14:50:45;30.80;95.20
20158;DHT22;10239;56.820;24.416;2022-08-19T14:53:13;30.90;95.40
20158;DHT22;10239;56.820;24.416;2022-08-19T14:55:44;31.00;95.90
20158;DHT22;10239;56.820;24.416;2022-08-19T14:58:12;31.10;95.30
20158;DHT22;10239;56.820;24.416;2022-08-19T15:00:58;31.10;95.20
20158;DHT22;10239;56.820;24.416;2022-08-19T15:03:28;31.10;94.90
20158;DHT22;10239;56.820;24.416;2022-08-19T15:05:56;31.00;95.50
20158;DHT22;10239;56.820;24.416;2022-08-19T15:08:25;30.90;94.50
20158;DHT22;10239;56.820;24.416;2022-08-19T15:10:53;30.80;95.40
20158;DHT22;10239;56.820;24.416;2022-08-19T15:13:21;30.80;94.60
20158;DHT22;10239;56.820;24.416;2022-08-19T15:15:48;31.00;95.10
20158;DHT22;10239;56.820;24.416;2022-08-19T15:18:16;30.70;95.30
20158;DHT22;10239;56.820;24.416;2022-08-19T15:20:44;30.70;95.20
20158;DHT22;10239;56.820;24.416;2022-08-19T15:23:17;30.80;95.30
20158;DHT22;10239;56.820;24.416;2022-08-19T15:25:45;30.90;94.80
20158;DHT22;10239;56.820;24.416;2022-08-19T15:28:13;31.00;95.40
20158;DHT22;10239;56.820;24.416;2022-08-19T15:30:42;30.80;95.50
20158;DHT22;10239;56.820;24.416;2022-08-19T15:33:11;31.00;95.40
20158;DHT22;10239;56.820;24.416;2022-08-19T15:35:43;31.20;95.00
20158;DHT22;10239;56.820;24.416;2022-08-19T15:38:10;31.30;95.30
20158;DHT22;10239;56.820;24.416;2022-08-19T15:40:41;31.30;95.70
20158;DHT22;10239;56.820;24.416;2022-08-19T15:43:09;31.20;96.30
20158;DHT22;10239;56.820;24.416;2022-08-19T15:45:37;31.00;96.30
20158;DHT22;10239;56.820;24.416;2022-08-19T15:48:06;30.90;96.40
20158;DHT22;10239;56.820;24.416;2022-08-19T15:50:34;30.90;96.10
20158;DHT22;10239;56.820;24.416;2022-08-19T15:53:07;31.00;96.40
20158;DHT22;10239;56.820;24.416;2022-08-19T15:55:42;30.80;96.50
20158;DHT22;10239;56.820;24.416;2022-08-19T15:58:12;30.50;96.70
20158;DHT22;10239;56.820;24.416;2022-08-19T16:01:02;30.60;97.70
20158;DHT22;10239;56.820;24.416;2022-08-19T16:03:52;30.30;95.40